createdAt,value
2022-10-28T00:02:13.344Z,86.33
2022-10-28T00:04:41.221Z,86.47
2022-10-28T00:07:08.493Z,86.52
2022-10-28T00:09:35.516Z,86.82
2022-10-28T00:12:03.013Z,86.95
2022-10-28T00:14:30.647Z,87.03
2022-10-28T00:16:57.650Z,87.15
2022-10-28T00:19:25.367Z,87.04
2022-10-28T00:21:52.452Z,87.19
2022-10-28T00:24:19.545Z,87.15
2022-10-28T00:26:47.125Z,87.27
2022-10-28T00:29:16.544Z,87.31
2022-10-28T00:31:44.169Z,87.43
2022-10-28T00:34:15.405Z,87.41
2022-10-28T00:36:44.403Z,87.38
2022-10-28T00:39:14.306Z,87.28
2022-10-28T00:41:43.945Z,87.32
2022-10-28T00:44:42.019Z,87.27
2022-10-28T00:47:16.612Z,87.42
2022-10-28T00:49:46.890Z,87.56
2022-10-28T00:52:17.719Z,87.59
2022-10-28T00:54:46.426Z,87.69
2022-10-28T00:57:17.202Z,87.73
2022-10-28T00:59:48.789Z,87.80
2022-10-28T01:02:16.079Z,87.72
2022-10-28T01:04:44.290Z,87.79
2022-10-28T01:07:12.098Z,87.80
2022-10-28T01:09:39.732Z,87.81
2022-10-28T01:12:15.268Z,87.72
2022-10-28T01:14:56.803Z,87.98
2022-10-28T01:17:35.365Z,88.09
2022-10-28T01:20:48.427Z,88.20
2022-10-28T01:23:23.400Z,88.34
2022-10-28T01:26:26.266Z,88.45
2022-10-28T01:29:13.544Z,88.61
2022-10-28T01:31:42.763Z,88.66
2022-10-28T01:34:19.950Z,88.82
2022-10-28T01:36:57.601Z,88.68
2022-10-28T01:39:31.931Z,88.77
2022-10-28T01:42:08.906Z,88.65
2022-10-28T01:44:44.745Z,88.63
2022-10-28T01:47:16.053Z,88.55
2022-10-28T01:49:50.520Z,88.44
2022-10-28T01:52:22.388Z,88.63
2022-10-28T01:54:54.151Z,88.69
2022-10-28T01:57:24.593Z,89.01
2022-10-28T01:59:52.534Z,89.36
2022-10-28T02:02:21.181Z,89.55
2022-10-28T02:04:48.190Z,89.79
2022-10-28T02:07:16.668Z,89.98
2022-10-28T02:10:01.225Z,89.93
2022-10-28T02:12:32.178Z,90.18
2022-10-28T02:15:21.188Z,90.06
2022-10-28T02:18:09.247Z,89.68
2022-10-28T02:20:44.654Z,89.46
2022-10-28T02:23:23.661Z,89.36
2022-10-28T02:25:57.685Z,89.33
2022-10-28T02:28:33.344Z,89.37
2022-10-28T02:31:07.038Z,89.39
2022-10-28T02:33:39.698Z,89.30
2022-10-28T02:36:10.466Z,89.45
2022-10-28T02:38:41.393Z,89.49
2022-10-28T02:41:15.387Z,89.61
2022-10-28T02:43:47.360Z,89.60
2022-10-28T02:46:17.587Z,89.91
2022-10-28T02:48:49.556Z,90.13
2022-10-28T02:51:20.163Z,90.18
2022-10-28T02:53:57.342Z,90.54
2022-10-28T02:56:24.547Z,90.60
2022-10-28T02:58:52.263Z,90.59
2022-10-28T03:01:19.825Z,90.54
2022-10-28T03:03:47.079Z,90.50
2022-10-28T03:06:14.201Z,90.55
2022-10-28T03:08:41.283Z,90.42
2022-10-28T03:11:08.632Z,90.57
2022-10-28T03:13:35.651Z,90.40
2022-10-28T03:16:02.869Z,90.52
2022-10-28T03:18:30.212Z,90.23
2022-10-28T03:20:59.039Z,90.19
2022-10-28T03:23:26.635Z,90.18
2022-10-28T03:25:53.788Z,90.32
2022-10-28T03:28:20.857Z,90.20
2022-10-28T03:30:47.993Z,90.14
2022-10-28T03:33:15.607Z,90.15
2022-10-28T03:35:42.577Z,90.02
2022-10-28T03:38:10.340Z,89.80
2022-10-28T03:40:37.462Z,89.75
2022-10-28T03:43:04.747Z,89.78
2022-10-28T03:45:31.786Z,89.87
2022-10-28T03:47:59.023Z,90.08
2022-10-28T03:50:26.436Z,90.13
2022-10-28T03:52:53.956Z,90.18
2022-10-28T03:55:21.071Z,90.31
2022-10-28T03:57:48.171Z,90.41
2022-10-28T04:00:17.514Z,90.53
2022-10-28T04:02:44.493Z,90.61
2022-10-28T04:05:12.046Z,90.58
2022-10-28T04:07:39.086Z,90.65
2022-10-28T04:10:07.047Z,90.80
2022-10-28T04:12:34.121Z,90.73
2022-10-28T04:15:01.439Z,90.86
2022-10-28T04:17:28.595Z,91.00
2022-10-28T04:19:55.701Z,91.08
2022-10-28T04:22:22.900Z,91.11
2022-10-28T04:24:50.207Z,91.32
2022-10-28T04:27:17.240Z,91.41
2022-10-28T04:29:44.247Z,91.38
2022-10-28T04:32:11.422Z,91.50
2022-10-28T04:34:38.613Z,91.62
2022-10-28T04:37:05.690Z,91.70
2022-10-28T04:39:33.414Z,91.80
2022-10-28T04:42:00.600Z,91.80
2022-10-28T04:44:27.770Z,91.76
2022-10-28T04:46:56.718Z,91.65
2022-10-28T04:49:24.202Z,91.74
2022-10-28T04:51:51.279Z,91.53
2022-10-28T04:54:18.310Z,91.31
2022-10-28T04:56:45.391Z,91.26
2022-10-28T04:59:12.761Z,91.22
2022-10-28T05:01:40.378Z,91.17
2022-10-28T05:04:07.656Z,91.25
2022-10-28T05:06:34.745Z,91.29
2022-10-28T05:09:01.760Z,91.34
2022-10-28T05:11:28.907Z,91.16
2022-10-28T05:13:55.949Z,91.21
2022-10-28T05:16:22.966Z,91.08
2022-10-28T05:18:50.248Z,91.05
2022-10-28T05:21:17.548Z,90.85
2022-10-28T05:23:44.559Z,90.53
2022-10-28T05:26:11.737Z,90.35
2022-10-28T05:28:38.836Z,90.17
2022-10-28T05:31:05.858Z,90.06
2022-10-28T05:33:33.671Z,90.15
2022-10-28T05:36:02.557Z,90.07
2022-10-28T05:38:30.059Z,90.09
2022-10-28T05:40:57.081Z,90.11
2022-10-28T05:43:24.099Z,90.08
2022-10-28T05:45:56.718Z,90.19
2022-10-28T05:48:24.036Z,90.31
2022-10-28T05:50:51.255Z,90.36
2022-10-28T05:53:18.507Z,90.34
2022-10-28T05:55:47.775Z,90.43
2022-10-28T05:58:15.642Z,90.45
2022-10-28T06:00:42.602Z,90.47
2022-10-28T06:03:12.316Z,90.24
2022-10-28T06:05:40.522Z,90.12
2022-10-28T06:08:08.521Z,89.94
2022-10-28T06:10:36.088Z,89.93
2022-10-28T06:13:02.188Z,89.78
2022-10-28T06:15:29.236Z,89.77
2022-10-28T06:17:56.546Z,89.65
2022-10-28T06:20:23.663Z,89.43
2022-10-28T06:22:52.782Z,89.26
2022-10-28T06:25:21.637Z,89.04
2022-10-28T06:27:54.327Z,88.78
2022-10-28T06:30:22.960Z,88.58
2022-10-28T06:32:50.029Z,88.44
2022-10-28T06:35:17.506Z,88.28
2022-10-28T06:37:44.775Z,88.20
2022-10-28T06:40:12.708Z,87.98
2022-10-28T06:42:40.078Z,87.75
2022-10-28T06:45:09.094Z,87.56
2022-10-28T06:47:40.642Z,87.28
2022-10-28T06:50:10.005Z,87.19
2022-10-28T06:52:37.372Z,87.11
2022-10-28T06:55:04.648Z,86.25
2022-10-28T06:57:33.501Z,85.42
2022-10-28T07:00:01.660Z,84.63
2022-10-28T07:02:31.219Z,83.40
2022-10-28T07:04:58.379Z,82.58
2022-10-28T07:07:25.724Z,81.64
2022-10-28T07:09:52.860Z,80.80
2022-10-28T07:12:19.857Z,80.17
2022-10-28T07:14:46.929Z,79.48
2022-10-28T07:17:13.942Z,78.97
2022-10-28T07:19:41.033Z,78.48
2022-10-28T07:22:08.095Z,77.74
2022-10-28T07:24:35.958Z,77.27
2022-10-28T07:27:03.375Z,76.74
2022-10-28T07:29:30.643Z,75.85
2022-10-28T07:31:58.488Z,74.95
2022-10-28T07:34:27.305Z,74.08
2022-10-28T07:36:56.410Z,73.24
2022-10-28T07:39:24.095Z,73.02
2022-10-28T07:41:51.404Z,72.52
2022-10-28T07:44:18.781Z,72.26
2022-10-28T07:46:46.147Z,71.59
2022-10-28T07:49:13.334Z,71.57
2022-10-28T07:51:40.995Z,71.51
2022-10-28T07:54:08.217Z,71.48
2022-10-28T07:56:35.348Z,71.47
2022-10-28T07:59:03.130Z,70.99
2022-10-28T08:01:30.751Z,69.96
2022-10-28T08:03:58.005Z,68.89
2022-10-28T08:06:25.325Z,68.19
2022-10-28T08:08:57.107Z,67.66
2022-10-28T08:11:25.078Z,67.89
2022-10-28T08:13:53.059Z,68.16
2022-10-28T08:16:20.687Z,68.48
2022-10-28T08:18:48.014Z,68.46
2022-10-28T08:21:16.649Z,68.63
2022-10-28T08:23:46.976Z,68.67
2022-10-28T08:26:15.093Z,68.86
2022-10-28T08:28:42.406Z,69.27
2022-10-28T08:31:10.252Z,68.59
2022-10-28T08:33:38.103Z,68.07
2022-10-28T08:36:05.708Z,67.03
2022-10-28T08:38:33.044Z,66.78
2022-10-28T08:41:09.506Z,66.70
2022-10-28T08:43:57.365Z,67.22
2022-10-28T08:46:33.888Z,67.77
2022-10-28T08:49:04.375Z,67.68
2022-10-28T08:51:40.150Z,68.07
2022-10-28T08:54:14.644Z,68.27
2022-10-28T08:56:46.195Z,68.95
2022-10-28T08:59:19.083Z,68.93
2022-10-28T09:01:50.965Z,69.25
2022-10-28T09:04:27.859Z,68.05
2022-10-28T09:06:55.306Z,67.03
2022-10-28T09:10:10.643Z,65.96
2022-10-28T09:12:50.027Z,64.38
2022-10-28T09:18:19.944Z,62.68
2022-10-28T09:20:54.301Z,62.36
2022-10-28T09:23:25.314Z,61.67
2022-10-28T09:26:00.037Z,60.96
2022-10-28T09:28:42.382Z,61.21
2022-10-28T09:31:35.782Z,60.63
2022-10-28T09:34:31.563Z,60.36
2022-10-28T09:37:04.149Z,60.26
2022-10-28T09:39:38.432Z,61.22
2022-10-28T09:42:07.100Z,60.65
2022-10-28T09:44:56.539Z,61.00
2022-10-28T09:47:28.434Z,59.77
2022-10-28T09:50:02.498Z,59.31
2022-10-28T09:52:35.572Z,59.17
2022-10-28T09:55:08.590Z,59.69
2022-10-28T09:57:35.735Z,60.11
2022-10-28T10:00:03.788Z,60.33
2022-10-28T10:02:40.435Z,60.01
2022-10-28T10:05:17.164Z,58.91
2022-10-28T10:07:50.780Z,58.72
2022-10-28T10:10:23.399Z,58.59
2022-10-28T10:12:52.411Z,58.91
2022-10-28T10:15:27.448Z,59.53
2022-10-28T10:18:18.395Z,59.00
2022-10-28T10:20:55.924Z,58.36
2022-10-28T10:23:41.016Z,57.99
2022-10-28T10:26:12.278Z,57.99
2022-10-28T10:28:44.912Z,57.84
2022-10-28T10:31:30.876Z,58.12
2022-10-28T10:33:59.667Z,58.13
2022-10-28T10:36:53.184Z,58.51
2022-10-28T10:39:40.210Z,58.62
2022-10-28T10:42:18.595Z,58.73
2022-10-28T10:45:22.010Z,59.01
2022-10-28T10:47:49.078Z,59.29
2022-10-28T10:53:03.231Z,58.79
2022-10-28T10:55:53.491Z,59.07
2022-10-28T10:58:24.174Z,59.03
2022-10-28T11:00:53.413Z,59.18
2022-10-28T11:03:22.959Z,59.41
2022-10-28T11:06:18.268Z,59.18
2022-10-28T11:08:45.321Z,59.26
2022-10-28T11:11:21.687Z,59.53
2022-10-28T11:13:50.097Z,59.52
2022-10-28T11:16:35.746Z,59.77
2022-10-28T11:19:21.831Z,59.79
2022-10-28T11:22:02.593Z,60.02
2022-10-28T11:24:45.188Z,60.18
2022-10-28T11:27:31.595Z,60.70
2022-10-28T11:30:01.022Z,60.95
2022-10-28T11:32:54.572Z,61.13
2022-10-28T11:35:44.732Z,60.97
2022-10-28T11:38:25.784Z,61.43
2022-10-28T11:41:06.755Z,61.17
2022-10-28T11:43:55.771Z,61.25
2022-10-28T11:46:38.383Z,60.97
2022-10-28T11:49:26.127Z,60.87
2022-10-28T11:51:59.872Z,61.46
2022-10-28T11:54:43.253Z,61.41
2022-10-28T11:57:12.285Z,61.02
2022-10-28T12:00:01.873Z,60.59
2022-10-28T12:03:06.197Z,60.48
2022-10-28T12:05:40.530Z,60.43
2022-10-28T12:08:29.896Z,60.15
2022-10-28T12:11:11.992Z,60.79
2022-10-28T12:14:05.156Z,60.51
2022-10-28T12:16:56.870Z,60.28
2022-10-28T12:19:28.641Z,60.34
2022-10-28T12:22:04.384Z,60.14
2022-10-28T12:24:36.306Z,60.35
2022-10-28T12:27:26.930Z,60.74
2022-10-28T12:29:58.200Z,60.40
2022-10-28T12:32:30.810Z,60.06
2022-10-28T12:35:01.706Z,60.16
2022-10-28T12:37:34.198Z,59.81
2022-10-28T12:40:08.616Z,59.54
2022-10-28T12:42:59.505Z,60.05
2022-10-28T12:45:27.264Z,59.58
2022-10-28T12:48:00.780Z,58.72
2022-10-28T12:50:51.938Z,58.35
2022-10-28T12:53:36.454Z,57.79
2022-10-28T12:56:08.469Z,58.49
2022-10-28T12:58:39.802Z,58.68
2022-10-28T13:01:11.856Z,58.70
2022-10-28T13:03:40.772Z,58.43
2022-10-28T13:06:32.035Z,58.06
2022-10-28T13:09:15.158Z,58.11
2022-10-28T13:11:54.983Z,58.66
2022-10-28T13:14:45.521Z,58.11
2022-10-28T13:17:32.769Z,58.45
2022-10-28T13:20:26.576Z,58.07
2022-10-28T13:23:23.027Z,58.35
2022-10-28T13:26:00.604Z,58.51
2022-10-28T13:28:33.416Z,58.58
2022-10-28T13:31:02.346Z,58.53
2022-10-28T13:33:30.834Z,58.59
2022-10-28T13:36:09.657Z,58.81
2022-10-28T13:38:59.929Z,59.27
2022-10-28T13:41:47.972Z,59.64
2022-10-28T13:44:48.242Z,59.82
2022-10-28T13:47:30.891Z,60.12
2022-10-28T13:50:33.612Z,60.51
2022-10-28T13:53:46.307Z,60.86
2022-10-28T13:56:24.653Z,61.09
2022-10-28T13:59:01.317Z,61.66
2022-10-28T14:02:01.961Z,61.64
2022-10-28T14:04:41.104Z,62.18
2022-10-28T14:07:27.968Z,62.68
2022-10-28T14:09:58.509Z,62.80
2022-10-28T14:12:29.785Z,62.78
2022-10-28T14:15:01.731Z,62.93
2022-10-28T14:17:51.196Z,63.27
2022-10-28T14:20:33.419Z,63.40
2022-10-28T14:27:26.970Z,63.27
2022-10-28T14:30:20.366Z,63.33
2022-10-28T14:33:00.683Z,63.52
2022-10-28T14:35:46.131Z,63.64
2022-10-28T14:38:43.654Z,63.67
2022-10-28T14:41:37.838Z,64.00
2022-10-28T14:44:16.519Z,64.10
2022-10-28T14:46:55.774Z,64.43
2022-10-28T14:49:26.221Z,64.61
2022-10-28T14:51:54.325Z,64.92
2022-10-28T14:54:26.811Z,65.19
2022-10-28T14:56:57.872Z,65.28
2022-10-28T14:59:44.060Z,65.61
2022-10-28T15:02:16.072Z,65.93
2022-10-28T15:04:45.805Z,66.05
2022-10-28T15:07:23.942Z,66.21
2022-10-28T15:09:57.477Z,66.49
2022-10-28T15:12:28.784Z,66.58
2022-10-28T15:15:23.537Z,66.84
2022-10-28T15:18:24.733Z,67.28
2022-10-28T15:21:07.956Z,67.66
2022-10-28T15:23:35.655Z,67.93
2022-10-28T15:26:11.534Z,68.15
2022-10-28T15:28:39.848Z,68.46
2022-10-28T15:31:06.940Z,68.75
2022-10-28T15:33:38.531Z,68.86
2022-10-28T15:36:18.061Z,69.19
2022-10-28T15:38:50.245Z,69.46
2022-10-28T15:41:52.567Z,69.58
2022-10-28T15:44:35.739Z,69.83
2022-10-28T15:47:08.730Z,70.07
2022-10-28T15:49:39.157Z,70.51
2022-10-28T15:52:38.350Z,70.81
2022-10-28T15:55:23.830Z,71.17
2022-10-28T15:57:59.635Z,71.44
2022-10-28T16:00:54.766Z,71.79
2022-10-28T16:03:48.788Z,71.96
2022-10-28T16:06:28.320Z,72.17
2022-10-28T16:09:05.777Z,72.34
2022-10-28T16:11:35.856Z,72.61
2022-10-28T16:14:30.061Z,72.72
2022-10-28T16:16:57.904Z,72.83
2022-10-28T16:19:30.046Z,72.99
2022-10-28T16:21:57.432Z,73.03
2022-10-28T16:24:24.501Z,73.10
2022-10-28T16:26:51.802Z,73.17
2022-10-28T16:29:18.888Z,73.29
2022-10-28T16:31:49.702Z,73.30
2022-10-28T16:34:20.183Z,73.44
2022-10-28T16:36:47.384Z,73.51
2022-10-28T16:39:32.119Z,73.67
2022-10-28T16:42:17.335Z,73.81
2022-10-28T16:44:44.438Z,73.97
2022-10-28T16:47:29.244Z,74.08
2022-10-28T16:49:57.775Z,74.07
2022-10-28T16:52:27.297Z,74.06
2022-10-28T16:54:54.519Z,74.19
2022-10-28T16:57:40.764Z,74.31
2022-10-28T17:00:11.040Z,74.30
2022-10-28T17:02:38.792Z,74.46
2022-10-28T17:05:07.511Z,74.46
2022-10-28T17:07:56.075Z,74.50
2022-10-28T17:10:23.768Z,74.39
2022-10-28T17:12:52.014Z,74.45
2022-10-28T17:15:37.097Z,74.57
2022-10-28T17:18:05.022Z,74.68
2022-10-28T17:20:49.534Z,74.68
2022-10-28T17:23:16.841Z,74.72
2022-10-28T17:25:43.823Z,74.77
2022-10-28T17:28:29.424Z,74.67
2022-10-28T17:31:02.577Z,74.79
2022-10-28T17:33:29.634Z,74.85
2022-10-28T17:35:56.723Z,74.80
2022-10-28T17:38:23.833Z,74.92
2022-10-28T17:41:08.918Z,74.81
2022-10-28T17:43:36.022Z,74.84
2022-10-28T17:46:09.543Z,74.79
2022-10-28T17:48:37.009Z,74.77
2022-10-28T17:51:04.476Z,74.75
2022-10-28T17:53:31.622Z,74.78
2022-10-28T17:56:02.483Z,74.75
2022-10-28T17:58:29.993Z,74.87
2022-10-28T18:01:01.006Z,74.89
2022-10-28T18:03:31.693Z,74.87
2022-10-28T18:06:07.086Z,74.94
2022-10-28T18:08:51.856Z,74.78
2022-10-28T18:11:20.580Z,74.81
2022-10-28T18:13:49.171Z,74.86
2022-10-28T18:16:35.007Z,74.98
2022-10-28T18:19:06.376Z,75.13
2022-10-28T18:21:51.134Z,75.05
2022-10-28T18:24:36.217Z,75.17
2022-10-28T18:27:03.577Z,75.24
2022-10-28T18:29:30.716Z,75.28
2022-10-28T18:31:57.930Z,75.27
2022-10-28T18:34:25.461Z,75.24
2022-10-28T18:37:11.821Z,75.26
2022-10-28T18:39:39.376Z,75.19
2022-10-28T18:42:07.427Z,75.34
2022-10-28T18:44:36.882Z,75.32
2022-10-28T18:47:03.992Z,75.36
2022-10-28T18:49:31.125Z,75.34
2022-10-28T18:52:16.028Z,75.31
2022-10-28T18:54:43.431Z,75.32
2022-10-28T18:57:10.484Z,75.29
2022-10-28T19:00:17.444Z,75.44
2022-10-28T19:02:47.397Z,75.43
2022-10-28T19:05:15.084Z,75.48
2022-10-28T19:07:42.290Z,75.44
2022-10-28T19:10:12.830Z,75.30
2022-10-28T19:12:44.124Z,75.35
2022-10-28T19:15:13.590Z,75.21
2022-10-28T19:17:40.941Z,75.12
2022-10-28T19:20:09.433Z,75.19
2022-10-28T19:22:37.945Z,75.13
2022-10-28T19:25:05.392Z,75.23
2022-10-28T19:27:33.271Z,75.10
2022-10-28T19:30:18.215Z,75.26
2022-10-28T19:32:45.302Z,75.25
2022-10-28T19:35:12.736Z,75.34
2022-10-28T19:37:40.549Z,75.28
2022-10-28T19:40:09.643Z,75.31
2022-10-28T19:42:38.945Z,75.32
2022-10-28T19:45:07.075Z,75.24
2022-10-28T19:47:36.693Z,75.26
2022-10-28T19:50:03.799Z,75.35
2022-10-28T19:52:31.114Z,75.36
2022-10-28T19:54:58.398Z,75.25
2022-10-28T19:57:25.450Z,75.22
2022-10-28T20:00:13.281Z,75.16
2022-10-28T20:02:40.574Z,75.14
2022-10-28T20:05:09.156Z,75.06
2022-10-28T20:07:36.662Z,75.12
2022-10-28T20:10:03.899Z,75.06
2022-10-28T20:12:31.076Z,75.04
2022-10-28T20:15:15.796Z,75.06
2022-10-28T20:17:42.958Z,75.00
2022-10-28T20:20:27.627Z,75.00
2022-10-28T20:22:54.941Z,74.96
2022-10-28T20:25:39.709Z,74.70
2022-10-28T20:28:07.004Z,74.68
2022-10-28T20:31:06.090Z,74.83
2022-10-28T20:33:33.992Z,74.86
2022-10-28T20:36:29.281Z,74.93
2022-10-28T20:39:00.922Z,74.74
2022-10-28T20:41:29.995Z,74.80
2022-10-28T20:44:05.524Z,74.81
2022-10-28T20:46:35.759Z,74.66
2022-10-28T20:49:05.151Z,74.62
2022-10-28T20:51:33.990Z,74.39
2022-10-28T20:54:02.085Z,74.22
2022-10-28T20:56:31.308Z,74.21
2022-10-28T20:59:01.884Z,74.25
2022-10-28T21:01:47.087Z,74.35
2022-10-28T21:04:14.956Z,74.35
2022-10-28T21:07:00.599Z,74.29
2022-10-28T21:09:27.901Z,74.31
2022-10-28T21:11:55.055Z,74.23
2022-10-28T21:14:22.683Z,74.20
2022-10-28T21:17:07.551Z,74.27
2022-10-28T21:19:35.316Z,74.24
2022-10-28T21:22:02.469Z,74.31
2022-10-28T21:24:30.666Z,74.30
2022-10-28T21:26:57.858Z,74.34
2022-10-28T21:29:24.962Z,74.46
2022-10-28T21:31:52.021Z,74.37
2022-10-28T21:34:19.023Z,74.37
2022-10-28T21:36:46.018Z,74.44
2022-10-28T21:39:13.424Z,74.45
2022-10-28T21:41:40.462Z,74.47
2022-10-28T21:44:07.922Z,74.57
2022-10-28T21:46:34.935Z,74.73
2022-10-28T21:49:19.627Z,74.74
2022-10-28T21:51:46.659Z,74.87
2022-10-28T21:54:13.951Z,75.00
2022-10-28T21:56:58.552Z,75.00
2022-10-28T21:59:25.950Z,75.10
2022-10-28T22:01:53.160Z,75.14
2022-10-28T22:04:20.252Z,75.24
2022-10-28T22:07:04.967Z,75.40
2022-10-28T22:09:34.951Z,75.48
2022-10-28T22:12:04.589Z,75.48
2022-10-28T22:14:49.768Z,75.65
2022-10-28T22:17:16.727Z,75.71
2022-10-28T22:19:43.673Z,75.78
2022-10-28T22:22:13.413Z,75.88
2022-10-28T22:24:40.455Z,75.77
2022-10-28T22:27:07.471Z,75.79
2022-10-28T22:29:52.489Z,75.78
2022-10-28T22:32:19.437Z,75.85
2022-10-28T22:35:03.899Z,75.90
2022-10-28T22:37:30.893Z,76.06
2022-10-28T22:40:15.590Z,76.04
2022-10-28T22:42:42.598Z,76.02
2022-10-28T22:45:27.100Z,75.99
2022-10-28T22:47:54.510Z,76.08
2022-10-28T22:50:21.748Z,76.02
2022-10-28T22:52:48.724Z,75.92
2022-10-28T22:55:15.981Z,76.03
2022-10-28T22:57:43.053Z,76.12
2022-10-28T23:00:12.597Z,76.14
2022-10-28T23:02:59.096Z,76.17
2022-10-28T23:05:26.581Z,76.26
2022-10-28T23:07:53.778Z,76.19
2022-10-28T23:10:38.280Z,76.17
2022-10-28T23:13:05.461Z,76.21
2022-10-28T23:15:32.574Z,76.15
2022-10-28T23:17:59.623Z,76.09
2022-10-28T23:20:27.637Z,76.19
2022-10-28T23:22:57.714Z,76.18
2022-10-28T23:25:40.487Z,76.23
2022-10-28T23:28:08.976Z,76.07
2022-10-28T23:30:53.610Z,76.05
2022-10-28T23:33:20.759Z,76.23
2022-10-28T23:35:54.070Z,76.15
2022-10-28T23:38:21.971Z,76.19
2022-10-28T23:40:56.593Z,76.14
2022-10-28T23:43:23.676Z,76.11
2022-10-28T23:45:50.734Z,76.20
2022-10-28T23:48:17.956Z,76.15
2022-10-28T23:51:03.425Z,76.22
2022-10-28T23:53:31.547Z,76.33
2022-10-28T23:56:16.357Z,76.31
2022-10-28T23:58:43.395Z,76.49
